GCTS

Tenerife South Airport

Tenerife Island, Spain
METAR GCTS 182230Z 17003KT 130V190 9999 BKN030 20/17 Q1019 NOSIG
Observed Flight Rules
Jun-18 @ 22:30 UTC (12 minutes ago) Marginal Visual Flight Rules
Wind Visibility Clouds
170° at 3 knots 10,000+ meters
  • Broken at 3,000' AGL
Temperatures Readings
Current 20°C / 68°F
Dewpoint 17°C / 63°F
Humidity 83%
Altimeter 30.09" Hg
Pressure 1019 hPa
Elevation 72
METAR GCTS 182230Z 17003KT 130V190 9999 BKN030 20/17 Q1019 NOSIG
Observed Flight Rules
Jun-18 @ 22:30 UTC
(12 minutes ago)
MVFR
Wind Visibility
170° at 3 knots 10,000+ meters
Clouds
  • Broken at 3,000' AGL
Temperature Dewpoint
20°C / 68°F 17°C / 63°F
Humidity Altimeter Pressure
83% 30.09" Hg 1019 hPa